Time;durP1;ratioP1;P1;durP2;ratioP2;P2;SDS_P1;SDS_P2;PMS_P1;PMS_P2;Temp;Humidity;BMP_temperature;BMP_pressure;BME280_temperature;BME280_humidity;BME280_pressure;Samples;Min_cycle;Max_cycle;Signal;HPM_P1;HPM_P2
2023/03/03 00:01:13;;;;;;;7.93;1.70;;;11.10;99.90;;;;;;5090908;28;20111;-69
2023/03/03 00:03:39;;;;;;;7.77;2.37;;;11.10;99.90;;;;;;5091280;28;20023;-69
2023/03/03 00:06:10;;;;;;;9.85;2.15;;;11.10;99.90;;;;;;5090935;28;20031;-68
2023/03/03 00:08:39;;;;;;;11.50;2.38;;;11.10;99.90;;;;;;5090809;28;20032;-69
2023/03/03 00:11:06;;;;;;;8.30;2.10;;;11.00;99.90;;;;;;5090905;28;20020;-69
2023/03/03 00:13:46;;;;;;;10.35;2.55;;;11.00;99.90;;;;;;5091029;28;20044;-68
2023/03/03 00:16:23;;;;;;;9.50;2.00;;;11.00;99.90;;;;;;5090723;28;20028;-68
2023/03/03 00:18:50;;;;;;;11.15;2.13;;;11.00;99.90;;;;;;5089127;28;20036;-68
2023/03/03 00:21:33;;;;;;;10.43;2.20;;;10.90;99.90;;;;;;5090810;28;20054;-69
2023/03/03 00:24:20;;;;;;;10.73;2.15;;;10.90;99.90;;;;;;5089134;28;20379;-68
2023/03/03 00:26:51;;;;;;;10.20;2.35;;;10.80;99.90;;;;;;5088972;28;20518;-69
2023/03/03 00:29:35;;;;;;;6.07;2.17;;;10.80;99.90;;;;;;5108530;28;20162;-68
2023/03/03 00:32:35;;;;;;;9.30;2.10;;;10.70;99.90;;;;;;5110831;28;20035;-68
2023/03/03 00:35:22;;;;;;;8.80;2.28;;;10.70;99.90;;;;;;5111174;28;20028;-69
2023/03/03 00:37:56;;;;;;;12.93;2.45;;;10.70;99.90;;;;;;5111207;28;20471;-69
2023/03/03 00:40:38;;;;;;;8.57;2.10;;;10.70;99.90;;;;;;5110936;28;20092;-69
2023/03/03 00:43:21;;;;;;;11.43;2.50;;;10.70;99.90;;;;;;5111129;28;20107;-67
2023/03/03 00:45:52;;;;;;;10.10;2.50;;;10.70;99.90;;;;;;5110780;28;20059;-69
2023/03/03 00:48:28;;;;;;;11.15;2.47;;;10.70;99.90;;;;;;5110829;28;20048;-69
2023/03/03 00:50:57;;;;;;;7.90;1.95;;;10.70;99.90;;;;;;5110906;28;20075;-68
2023/03/03 00:53:28;;;;;;;4.35;1.70;;;10.70;99.90;;;;;;5111200;28;20490;-69
2023/03/03 00:55:54;;;;;;;10.23;2.30;;;10.70;99.90;;;;;;5110686;28;20139;-69
2023/03/03 00:58:23;;;;;;;6.85;1.90;;;10.60;99.90;;;;;;5110630;28;20024;-69
2023/03/03 01:00:51;;;;;;;11.15;2.42;;;10.60;99.90;;;;;;5113516;28;20098;-69
2023/03/03 01:03:24;;;;;;;16.15;2.20;;;10.60;99.90;;;;;;5105600;28;20020;-69
2023/03/03 01:05:51;;;;;;;12.02;3.10;;;10.50;99.90;;;;;;5094534;28;20171;-69
2023/03/03 01:08:18;;;;;;;10.38;2.60;;;10.60;99.90;;;;;;5094070;28;20451;-69
2023/03/03 01:10:53;;;;;;;12.32;2.28;;;10.50;99.90;;;;;;5094053;28;20024;-69
2023/03/03 01:13:22;;;;;;;11.45;2.25;;;10.50;99.90;;;;;;5094428;28;20024;-69
2023/03/03 01:15:49;;;;;;;12.05;3.17;;;10.50;99.90;;;;;;5094000;28;20484;-69
2023/03/03 01:18:16;;;;;;;16.08;2.70;;;10.50;99.90;;;;;;5094240;28;20540;-68
2023/03/03 01:20:43;;;;;;;11.45;2.05;;;10.60;99.90;;;;;;5093334;28;20093;-70
2023/03/03 01:23:09;;;;;;;6.30;2.03;;;10.60;99.90;;;;;;5094122;28;20056;-70
2023/03/03 01:25:35;;;;;;;11.63;2.00;;;10.60;99.90;;;;;;5093874;28;20261;-69
2023/03/03 01:28:03;;;;;;;6.95;2.35;;;10.60;99.90;;;;;;5109028;28;20296;-70
2023/03/03 01:30:31;;;;;;;6.55;2.03;;;10.60;99.90;;;;;;5078261;28;20116;-69
2023/03/03 01:32:57;;;;;;;9.98;2.13;;;10.60;99.90;;;;;;5114096;28;20111;-68
2023/03/03 01:35:23;;;;;;;10.63;2.23;;;10.50;99.90;;;;;;5113854;28;20096;-70
2023/03/03 01:37:49;;;;;;;13.80;2.63;;;10.60;99.90;;;;;;5113997;28;20047;-70
2023/03/03 01:40:23;;;;;;;13.40;2.97;;;10.60;99.90;;;;;;5113950;28;20300;-71
2023/03/03 01:42:52;;;;;;;10.55;2.38;;;10.60;99.90;;;;;;5114226;28;20027;-69
2023/03/03 01:45:20;;;;;;;11.80;2.90;;;10.60;99.90;;;;;;5113837;28;20107;-68
2023/03/03 01:48:08;;;;;;;11.98;2.38;;;10.60;99.90;;;;;;5113905;28;20432;-70
2023/03/03 01:50:46;;;;;;;11.82;2.13;;;10.60;99.90;;;;;;5113967;28;20031;-70
2023/03/03 01:53:30;;;;;;;7.72;1.58;;;10.70;99.90;;;;;;5113970;28;20520;-69
2023/03/03 01:55:56;;;;;;;7.88;2.00;;;10.70;99.90;;;;;;5114061;28;20085;-69
2023/03/03 01:58:27;;;;;;;10.43;2.15;;;10.70;99.90;;;;;;5113590;28;20031;-69
2023/03/03 02:01:03;;;;;;;10.55;1.92;;;10.70;99.90;;;;;;5095681;28;20032;-70
2023/03/03 02:03:29;;;;;;;6.88;2.20;;;10.60;99.90;;;;;;5095712;28;20092;-69
2023/03/03 02:06:06;;;;;;;8.55;2.10;;;10.60;99.90;;;;;;5095245;28;20059;-69
2023/03/03 02:08:58;;;;;;;4.80;2.13;;;10.60;99.90;;;;;;5113764;28;20050;-70
2023/03/03 02:11:25;;;;;;;12.68;2.30;;;10.50;99.90;;;;;;5112580;28;20066;-69
2023/03/03 02:13:52;;;;;;;7.00;1.90;;;10.50;99.90;;;;;;5094831;28;20054;-70
2023/03/03 02:16:18;;;;;;;12.57;2.22;;;10.50;99.90;;;;;;5113363;28;20474;-68
2023/03/03 02:18:44;;;;;;;15.70;3.37;;;10.50;99.90;;;;;;5113901;28;20152;-70
2023/03/03 02:21:22;;;;;;;9.25;1.90;;;10.60;99.90;;;;;;5113292;28;20059;-70
2023/03/03 02:23:57;;;;;;;9.43;2.03;;;10.70;99.90;;;;;;5113321;28;20024;-68
2023/03/03 02:26:27;;;;;;;10.48;1.27;;;10.40;99.90;;;;;;5113336;28;20031;-70
2023/03/03 02:28:54;;;;;;;5.80;1.15;;;9.80;99.90;;;;;;5112795;28;20108;-70
2023/03/03 02:31:22;;;;;;;;;;;9.40;99.90;;;;;;5113309;28;20024;-70
2023/03/03 02:33:52;;;;;;;3.10;0.60;;;8.90;99.90;;;;;;5113283;28;19949;-69
2023/03/03 02:36:24;;;;;;;4.65;0.80;;;8.60;99.90;;;;;;5113236;28;20028;-70
2023/03/03 02:39:17;;;;;;;3.40;0.80;;;8.50;99.90;;;;;;5113126;28;20027;-69
2023/03/03 02:42:03;;;;;;;0.52;0.40;;;8.50;99.90;;;;;;5113098;28;20320;-69
2023/03/03 02:44:31;;;;;;;1.70;0.55;;;8.30;99.90;;;;;;5113172;28;20415;-70
2023/03/03 02:46:58;;;;;;;2.10;0.70;;;8.20;99.90;;;;;;5112599;28;20027;-70
2023/03/03 02:49:29;;;;;;;1.00;0.60;;;7.90;99.90;;;;;;5094310;28;20036;-70
2023/03/03 02:51:57;;;;;;;0.63;0.50;;;7.90;99.90;;;;;;5113045;28;20023;-69
2023/03/03 02:54:31;;;;;;;2.63;0.77;;;7.90;99.90;;;;;;5112934;28;20047;-70
2023/03/03 02:56:59;;;;;;;1.33;0.63;;;7.80;99.90;;;;;;5111572;28;20031;-68
2023/03/03 02:59:25;;;;;;;3.42;0.70;;;7.80;99.90;;;;;;5112532;28;20031;-70
2023/03/03 03:01:53;;;;;;;1.80;0.70;;;7.80;99.90;;;;;;5093562;28;20163;-70
2023/03/03 03:04:25;;;;;;;1.15;0.50;;;7.80;99.90;;;;;;5111831;28;20030;-70
2023/03/03 03:06:52;;;;;;;1.10;0.60;;;7.80;99.90;;;;;;5112205;28;20080;-69
2023/03/03 03:09:20;;;;;;;1.00;0.60;;;7.80;99.90;;;;;;5111966;28;20134;-69
2023/03/03 03:11:47;;;;;;;0.68;0.50;;;7.70;99.90;;;;;;5111886;28;20023;-69
2023/03/03 03:14:13;;;;;;;1.30;0.60;;;7.90;99.90;;;;;;5112117;28;20024;-70
2023/03/03 03:16:40;;;;;;;1.27;0.50;;;7.80;99.90;;;;;;5111757;28;20098;-70
2023/03/03 03:19:07;;;;;;;0.60;0.45;;;7.90;99.90;;;;;;5111858;28;20375;-70
2023/03/03 03:21:36;;;;;;;0.40;0.40;;;7.90;99.90;;;;;;5111604;28;20024;-69
2023/03/03 03:24:02;;;;;;;0.93;0.52;;;7.90;99.90;;;;;;5111651;28;20027;-70
2023/03/03 03:26:28;;;;;;;0.85;0.55;;;7.70;99.90;;;;;;5111661;28;20019;-70
2023/03/03 03:28:54;;;;;;;1.30;0.47;;;7.60;99.90;;;;;;5111223;28;20040;-70
2023/03/03 03:31:26;;;;;;;1.17;0.60;;;7.40;99.90;;;;;;5111133;28;20024;-70
2023/03/03 03:33:53;;;;;;;1.00;0.50;;;7.20;99.90;;;;;;5111597;28;20066;-70
2023/03/03 03:36:20;;;;;;;1.58;0.50;;;7.00;99.90;;;;;;5112055;28;20039;-70
2023/03/03 03:38:46;;;;;;;0.90;0.50;;;7.00;99.90;;;;;;5093213;28;20039;-70
2023/03/03 03:41:13;;;;;;;0.98;0.60;;;6.90;99.90;;;;;;5111830;28;20488;-70
2023/03/03 03:43:40;;;;;;;1.77;0.80;;;6.90;99.90;;;;;;5111737;28;20039;-70
2023/03/03 03:46:06;;;;;;;0.80;0.60;;;7.00;99.90;;;;;;5076004;28;20023;-70
2023/03/03 03:48:33;;;;;;;3.35;0.70;;;6.90;99.90;;;;;;5111453;28;20035;-70
2023/03/03 03:50:59;;;;;;;1.37;0.70;;;6.90;99.90;;;;;;5111318;28;20076;-70
2023/03/03 03:53:25;;;;;;;1.92;0.70;;;6.90;99.90;;;;;;5111465;28;20308;-70
2023/03/03 03:55:51;;;;;;;1.07;0.60;;;7.10;99.90;;;;;;5111977;28;20019;-70
2023/03/03 03:58:18;;;;;;;0.82;0.55;;;7.30;99.90;;;;;;5093321;28;20046;-71
2023/03/03 04:00:46;;;;;;;3.25;0.55;;;7.40;99.90;;;;;;5111892;28;20266;-70
2023/03/03 04:03:15;;;;;;;2.85;0.90;;;7.40;99.90;;;;;;5111520;28;20019;-71
2023/03/03 04:05:41;;;;;;;4.93;0.82;;;7.50;99.90;;;;;;5110962;28;20028;-70
2023/03/03 04:08:08;;;;;;;2.03;0.85;;;7.50;99.90;;;;;;5112024;28;20027;-70
2023/03/03 04:10:35;;;;;;;6.18;0.73;;;7.40;99.90;;;;;;5111947;28;20024;-70
2023/03/03 04:13:01;;;;;;;2.75;0.75;;;7.40;99.90;;;;;;5111779;28;20606;-70
2023/03/03 04:15:27;;;;;;;1.67;0.60;;;7.30;99.90;;;;;;5111663;28;20051;-70
2023/03/03 04:17:55;;;;;;;2.92;0.80;;;7.30;99.90;;;;;;5111647;28;20065;-70
2023/03/03 04:20:21;;;;;;;3.05;0.82;;;7.40;99.90;;;;;;5093384;28;20063;-70
2023/03/03 04:22:47;;;;;;;2.60;0.90;;;7.50;99.90;;;;;;5094196;28;20031;-70
2023/03/03 04:25:15;;;;;;;2.85;0.90;;;7.60;99.90;;;;;;5112911;28;20051;-70
2023/03/03 04:27:42;;;;;;;2.97;1.00;;;7.80;99.90;;;;;;5093957;28;20047;-71
2023/03/03 04:30:10;;;;;;;3.28;1.08;;;7.90;99.90;;;;;;5112470;28;20493;-71
2023/03/03 04:32:36;;;;;;;2.35;0.80;;;7.70;99.90;;;;;;5112136;28;20055;-69
2023/03/03 04:35:02;;;;;;;1.55;0.80;;;7.40;99.90;;;;;;5111675;28;20066;-70
2023/03/03 04:37:29;;;;;;;2.77;0.90;;;7.20;99.90;;;;;;5112271;28;20023;-70
2023/03/03 04:40:01;;;;;;;1.40;0.80;;;7.10;99.90;;;;;;5112247;28;20262;-70
2023/03/03 04:42:27;;;;;;;2.15;0.80;;;7.00;99.90;;;;;;5094308;28;20035;-70
2023/03/03 04:44:53;;;;;;;3.20;1.00;;;7.00;99.90;;;;;;5112161;28;20103;-70
2023/03/03 04:47:19;;;;;;;2.20;0.80;;;7.00;99.90;;;;;;5112096;28;20042;-70
2023/03/03 04:49:45;;;;;;;4.65;0.98;;;7.00;99.90;;;;;;5112196;28;20019;-71
2023/03/03 04:52:11;;;;;;;2.63;1.00;;;7.20;99.90;;;;;;5112045;28;20032;-70
2023/03/03 04:54:37;;;;;;;1.60;0.82;;;7.20;99.90;;;;;;5112098;28;20080;-71
2023/03/03 04:57:03;;;;;;;3.10;0.80;;;7.20;99.90;;;;;;5112037;28;20016;-71
2023/03/03 04:59:30;;;;;;;3.63;1.45;;;7.20;99.90;;;;;;5111573;28;20035;-70
2023/03/03 05:01:56;;;;;;;1.38;0.90;;;7.10;99.90;;;;;;5111830;28;20024;-70
2023/03/03 05:04:22;;;;;;;3.05;0.80;;;7.10;99.90;;;;;;5112135;28;20024;-68
2023/03/03 05:06:48;;;;;;;5.20;1.00;;;7.20;99.90;;;;;;5112122;28;20107;-68
2023/03/03 05:09:14;;;;;;;1.83;0.70;;;7.20;99.90;;;;;;5111894;28;20364;-69
2023/03/03 05:11:40;;;;;;;2.92;0.82;;;7.30;99.90;;;;;;5111938;28;20099;-69
2023/03/03 05:14:07;;;;;;;3.85;1.17;;;7.40;99.90;;;;;;5111904;28;20027;-68
2023/03/03 05:16:34;;;;;;;4.35;0.80;;;7.50;99.90;;;;;;5112326;28;20023;-70
2023/03/03 05:19:00;;;;;;;1.75;0.73;;;7.50;99.90;;;;;;5113168;28;20080;-70
2023/03/03 05:21:26;;;;;;;3.35;1.13;;;7.50;99.90;;;;;;5112544;28;20429;-70
2023/03/03 05:23:55;;;;;;;1.80;0.98;;;7.50;99.90;;;;;;5113311;28;20030;-70
2023/03/03 05:26:27;;;;;;;3.38;1.08;;;7.50;99.90;;;;;;5113014;28;20035;-70
2023/03/03 05:28:53;;;;;;;2.85;1.10;;;7.60;99.90;;;;;;5112579;28;20218;-70
2023/03/03 05:31:20;;;;;;;1.17;0.73;;;7.60;99.90;;;;;;5094146;28;20115;-71
2023/03/03 05:33:50;;;;;;;2.08;1.00;;;7.60;99.90;;;;;;5112561;28;20035;-70
2023/03/03 05:36:18;;;;;;;4.93;1.27;;;7.60;99.90;;;;;;5112936;28;20035;-73
2023/03/03 05:38:45;;;;;;;1.77;0.90;;;7.50;99.90;;;;;;5112500;28;20467;-71
2023/03/03 05:41:13;;;;;;;1.80;0.90;;;7.50;99.90;;;;;;5112668;28;20019;-72
2023/03/03 05:43:39;;;;;;;2.47;0.77;;;7.50;99.90;;;;;;5112492;28;20031;-71
2023/03/03 05:46:05;;;;;;;1.97;1.00;;;7.40;99.90;;;;;;5112205;28;20046;-71
2023/03/03 05:48:31;;;;;;;1.42;0.90;;;7.40;99.90;;;;;;5116377;28;20032;-71
2023/03/03 05:50:58;;;;;;;2.80;0.90;;;7.30;99.90;;;;;;5115981;28;20031;-70
2023/03/03 05:53:24;;;;;;;;;;;7.20;99.90;;;;;;5116301;28;20051;-71
2023/03/03 05:55:50;;;;;;;1.80;1.00;;;7.10;99.90;;;;;;5116254;28;19908;-69
2023/03/03 05:58:16;;;;;;;2.07;0.80;;;7.10;99.90;;;;;;5115799;28;20092;-69
2023/03/03 06:00:42;;;;;;;0.98;0.60;;;7.10;99.90;;;;;;5115736;28;20051;-71
2023/03/03 06:03:14;;;;;;;1.97;0.83;;;7.10;99.90;;;;;;5097111;28;20382;-70
2023/03/03 06:05:40;;;;;;;1.88;0.90;;;7.10;99.90;;;;;;5115398;28;20289;-69
2023/03/03 06:08:08;;;;;;;1.45;0.80;;;7.10;99.90;;;;;;5115941;28;20078;-69
2023/03/03 06:10:34;;;;;;;4.22;0.90;;;7.20;99.90;;;;;;5096991;28;20114;-69
2023/03/03 06:13:02;;;;;;;2.90;1.00;;;7.20;99.90;;;;;;5115333;28;20028;-68
2023/03/03 06:15:29;;;;;;;2.88;1.67;;;7.30;99.90;;;;;;5115919;28;20026;-66
2023/03/03 06:17:57;;;;;;;3.58;1.20;;;7.40;99.90;;;;;;5115365;28;20027;-69
2023/03/03 06:20:23;;;;;;;1.42;0.75;;;7.50;99.90;;;;;;5115326;28;20024;-69
2023/03/03 06:22:49;;;;;;;1.38;0.80;;;7.50;99.90;;;;;;5116136;28;20498;-69
2023/03/03 06:25:15;;;;;;;1.13;0.60;;;7.60;99.90;;;;;;5115347;28;20024;-68
2023/03/03 06:27:41;;;;;;;4.75;1.27;;;7.60;99.90;;;;;;5115418;28;20031;-69
2023/03/03 06:30:08;;;;;;;3.20;1.00;;;7.70;99.90;;;;;;5115416;28;20425;-69
2023/03/03 06:32:34;;;;;;;1.55;0.85;;;7.70;99.90;;;;;;5096308;28;20364;-68
2023/03/03 06:35:00;;;;;;;2.30;1.00;;;7.70;99.90;;;;;;5114720;28;20387;-68
2023/03/03 06:37:28;;;;;;;14.10;0.85;;;7.80;99.90;;;;;;5114901;28;20031;-68
2023/03/03 06:39:55;;;;;;;3.03;1.02;;;7.90;99.90;;;;;;5115236;28;20118;-68
2023/03/03 06:42:23;;;;;;;1.55;0.70;;;7.90;99.90;;;;;;5114666;28;20108;-69
2023/03/03 06:44:50;;;;;;;1.50;0.77;;;7.90;99.90;;;;;;5095922;28;20044;-69
2023/03/03 06:47:17;;;;;;;2.72;0.70;;;7.90;99.90;;;;;;5114207;28;20028;-68
2023/03/03 06:49:43;;;;;;;1.92;0.90;;;8.00;99.90;;;;;;5095789;28;20062;-68
2023/03/03 06:52:13;;;;;;;1.98;0.93;;;8.10;99.90;;;;;;5113220;28;20055;-68
2023/03/03 06:54:40;;;;;;;2.47;0.82;;;8.10;99.90;;;;;;5113332;28;20047;-68
2023/03/03 06:57:17;;;;;;;1.08;0.68;;;8.10;99.90;;;;;;5094775;28;20055;-69
2023/03/03 06:59:46;;;;;;;3.50;1.30;;;8.10;99.90;;;;;;5113892;28;20019;-69
2023/03/03 07:02:17;;;;;;;3.72;1.25;;;8.10;99.90;;;;;;5094937;28;20028;-69
2023/03/03 07:04:46;;;;;;;5.53;1.10;;;8.10;99.90;;;;;;5095075;28;20055;-69
2023/03/03 07:07:19;;;;;;;14.65;1.85;;;8.10;99.90;;;;;;5113251;28;20475;-68
2023/03/03 07:09:48;;;;;;;5.43;1.55;;;8.10;99.90;;;;;;5113412;28;20027;-69
2023/03/03 07:12:21;;;;;;;2.55;1.02;;;8.00;99.90;;;;;;5114077;28;20051;-69
2023/03/03 07:14:59;;;;;;;5.63;1.50;;;8.00;99.90;;;;;;5113516;28;20093;-69
2023/03/03 07:17:25;;;;;;;6.55;1.40;;;7.90;99.90;;;;;;5094146;28;20031;-70
2023/03/03 07:19:52;;;;;;;10.27;2.30;;;8.00;99.90;;;;;;5113426;28;20043;-69
2023/03/03 07:22:21;;;;;;;7.00;1.27;;;8.00;99.90;;;;;;5113999;28;20035;-67
2023/03/03 07:24:53;;;;;;;2.53;1.30;;;8.10;99.90;;;;;;5113253;28;20058;-68
2023/03/03 07:27:30;;;;;;;5.70;1.45;;;8.10;99.90;;;;;;5113504;28;20443;-68
2023/03/03 07:30:29;;;;;;;11.07;1.67;;;8.10;99.90;;;;;;5113118;28;20051;-69
2023/03/03 07:32:57;;;;;;;6.68;1.70;;;8.10;99.90;;;;;;5010708;28;20151;-69
2023/03/03 07:35:40;;;;;;;3.85;1.40;;;8.10;99.90;;;;;;5011008;28;20048;-69
2023/03/03 07:38:29;;;;;;;5.03;1.50;;;8.20;99.90;;;;;;4994576;28;20037;-69
2023/03/03 07:40:59;;;;;;;3.28;1.15;;;8.30;99.90;;;;;;5010930;28;20432;-69
2023/03/03 07:43:56;;;;;;;2.67;1.30;;;8.30;99.90;;;;;;5010775;28;20161;-68
2023/03/03 07:46:30;;;;;;;6.38;1.45;;;8.30;99.90;;;;;;5008775;28;20246;-68
2023/03/03 07:48:57;;;;;;;2.53;1.10;;;8.30;99.90;;;;;;5010808;28;20045;-68
2023/03/03 07:51:35;;;;;;;2.10;0.95;;;8.20;99.90;;;;;;5011137;28;20069;-68
2023/03/03 07:54:31;;;;;;;2.35;0.90;;;8.20;99.90;;;;;;5010814;28;20072;-68
2023/03/03 07:57:20;;;;;;;;;;;8.20;99.90;;;;;;5010705;28;20108;-70
2023/03/03 07:59:54;;;;;;;1.60;0.80;;;8.20;99.90;;;;;;4932852;29;19962;-67
2023/03/03 08:02:32;;;;;;;2.20;0.90;;;8.20;99.90;;;;;;4932581;29;20073;-65
2023/03/03 08:04:59;;;;;;;1.40;0.70;;;8.20;99.90;;;;;;4933332;29;20032;-70
2023/03/03 08:07:30;;;;;;;0.85;0.60;;;8.30;99.90;;;;;;4938093;28;20098;-69
2023/03/03 08:10:01;;;;;;;4.38;1.00;;;8.40;99.90;;;;;;5009723;28;20041;-69
2023/03/03 08:12:40;;;;;;;1.60;0.63;;;8.40;99.90;;;;;;5009832;28;20033;-69
2023/03/03 08:15:21;;;;;;;1.55;0.80;;;8.30;99.90;;;;;;5010428;28;20018;-69
2023/03/03 08:17:51;;;;;;;3.45;0.80;;;8.30;99.90;;;;;;5010310;28;20034;-70
2023/03/03 08:20:51;;;;;;;1.65;0.68;;;8.30;99.90;;;;;;4993974;28;20022;-70
2023/03/03 08:23:20;;;;;;;2.35;0.82;;;8.30;99.90;;;;;;5010503;28;20038;-68
2023/03/03 08:26:12;;;;;;;1.52;0.60;;;8.30;99.90;;;;;;5010267;28;20025;-66
2023/03/03 08:28:41;;;;;;;1.30;0.75;;;8.40;99.90;;;;;;5009860;28;20053;-66
2023/03/03 08:31:09;;;;;;;1.38;0.60;;;8.40;99.90;;;;;;5009802;28;20100;-68
2023/03/03 08:33:35;;;;;;;1.73;0.93;;;8.40;99.90;;;;;;5009869;28;20176;-67
2023/03/03 08:36:21;;;;;;;3.45;0.68;;;8.40;99.90;;;;;;5022157;28;20041;-70
2023/03/03 08:38:48;;;;;;;2.03;0.70;;;8.40;99.90;;;;;;5072141;28;20468;-69
2023/03/03 08:41:16;;;;;;;1.70;0.70;;;8.40;99.90;;;;;;5072204;28;20020;-69
2023/03/03 08:43:44;;;;;;;2.05;0.98;;;8.50;99.90;;;;;;5071710;28;20025;-69
2023/03/03 08:46:13;;;;;;;1.40;0.75;;;8.40;99.90;;;;;;5070135;28;20033;-67
2023/03/03 08:48:39;;;;;;;3.72;2.00;;;8.30;99.90;;;;;;5071293;28;20028;-68
2023/03/03 08:51:05;;;;;;;3.83;2.07;;;8.20;99.90;;;;;;5069101;28;20051;-68
2023/03/03 08:53:35;;;;;;;1.90;1.25;;;8.10;99.90;;;;;;5070867;28;20428;-68
2023/03/03 08:56:01;;;;;;;3.30;1.70;;;8.10;99.90;;;;;;5071038;28;20025;-68
2023/03/03 08:58:27;;;;;;;4.90;1.50;;;8.10;99.90;;;;;;5090051;28;20020;-68
2023/03/03 09:00:54;;;;;;;1.88;1.00;;;8.30;99.90;;;;;;5091257;28;20391;-68
2023/03/03 09:03:20;;;;;;;;;;;8.30;99.90;;;;;;5091258;28;20043;-68
2023/03/03 09:05:46;;;;;;;1.80;0.90;;;8.40;99.90;;;;;;5091370;28;19904;-67
2023/03/03 09:08:12;;;;;;;5.10;1.10;;;8.60;99.90;;;;;;5091247;28;20107;-69
2023/03/03 09:10:39;;;;;;;4.60;0.73;;;8.70;99.90;;;;;;5091442;28;20024;-68
2023/03/03 13:40:43;;;;;;;2.25;0.80;;;12.40;99.90;;;;;;5105099;27;20350;-70
2023/03/03 13:43:35;;;;;;;3.38;0.85;;;12.60;99.90;;;;;;5095038;28;20060;-72
2023/03/03 13:46:16;;;;;;;1.63;0.70;;;12.90;99.90;;;;;;5073413;28;20127;-72
2023/03/03 13:48:51;;;;;;;0.90;0.57;;;12.90;99.90;;;;;;5090436;28;20020;-71
2023/03/03 13:51:47;;;;;;;2.17;0.60;;;12.80;99.90;;;;;;5089896;28;20028;-72
2023/03/03 13:54:35;;;;;;;1.80;0.93;;;12.40;99.90;;;;;;5088656;28;20029;-72
2023/03/03 13:57:41;;;;;;;3.30;1.00;;;12.40;99.90;;;;;;5089404;28;20052;-71
2023/03/03 14:00:30;;;;;;;3.72;1.20;;;12.40;99.90;;;;;;5080398;28;20032;-72
2023/03/03 14:03:25;;;;;;;3.72;0.85;;;12.80;99.90;;;;;;5089501;28;20070;-72
2023/03/03 14:06:02;;;;;;;2.47;0.70;;;12.60;99.90;;;;;;5089543;28;20051;-72
2023/03/03 14:09:21;;;;;;;4.88;0.95;;;12.60;99.90;;;;;;5089326;28;20031;-71
2023/03/03 14:12:04;;;;;;;2.05;0.80;;;12.90;99.90;;;;;;5067061;28;20107;-70
2023/03/03 14:14:56;;;;;;;1.20;0.60;;;13.00;99.90;;;;;;5066246;28;20024;-70
2023/03/03 14:17:48;;;;;;;3.22;0.80;;;12.90;99.90;;;;;;5067134;28;20071;-70
2023/03/03 14:20:30;;;;;;;5.78;0.82;;;12.80;99.90;;;;;;5067503;28;20492;-71
2023/03/03 14:23:01;;;;;;;1.50;0.70;;;13.00;99.90;;;;;;5067512;28;20104;-71
2023/03/03 14:25:47;;;;;;;1.48;0.60;;;13.00;99.90;;;;;;5066969;28;20074;-71
2023/03/03 14:28:20;;;;;;;1.48;0.70;;;12.60;99.90;;;;;;5067188;28;20025;-72
2023/03/03 14:30:47;;;;;;;7.07;0.60;;;12.50;99.90;;;;;;5067430;28;20044;-69
2023/03/03 14:33:21;;;;;;;3.15;0.88;;;12.60;99.90;;;;;;5067289;28;20029;-72
2023/03/03 14:36:02;;;;;;;3.78;0.90;;;12.70;99.90;;;;;;5067092;28;20033;-69
2023/03/03 14:38:31;;;;;;;1.65;0.60;;;12.80;99.90;;;;;;5066729;28;20052;-70
2023/03/03 14:41:18;;;;;;;1.63;0.60;;;12.70;99.90;;;;;;5081054;28;20403;-72
2023/03/03 14:44:23;;;;;;;2.25;0.85;;;12.70;99.90;;;;;;5090012;28;20066;-71
2023/03/03 14:47:07;;;;;;;1.58;0.68;;;12.80;99.90;;;;;;5084719;28;20062;-71
2023/03/03 14:49:37;;;;;;;18.58;1.00;;;13.10;99.90;;;;;;5089441;28;20544;-71
2023/03/03 14:52:15;;;;;;;2.28;0.82;;;13.20;99.90;;;;;;5075159;28;20078;-70
2023/03/03 14:54:59;;;;;;;4.18;0.60;;;13.00;99.90;;;;;;5075393;28;20598;-71
2023/03/03 14:57:56;;;;;;;3.42;0.80;;;13.00;99.90;;;;;;5108197;28;20170;-71
2023/03/03 15:00:29;;;;;;;3.10;0.88;;;13.10;99.90;;;;;;5075022;28;20067;-71
2023/03/03 15:03:03;;;;;;;3.00;0.82;;;13.30;99.90;;;;;;5074732;28;20088;-71
2023/03/03 15:05:30;;;;;;;2.08;0.70;;;13.10;99.90;;;;;;5074841;28;20360;-68
2023/03/03 15:08:04;;;;;;;2.22;0.60;;;13.10;99.90;;;;;;5073278;28;20364;-70
2023/03/03 15:10:37;;;;;;;3.72;0.80;;;13.10;99.90;;;;;;5072874;28;20541;-66
2023/03/03 15:13:33;;;;;;;1.67;0.80;;;12.90;99.90;;;;;;5064252;28;20200;-65
2023/03/03 15:15:59;;;;;;;2.28;1.00;;;13.10;99.90;;;;;;5058097;28;20029;-70
2023/03/03 15:18:26;;;;;;;2.92;0.82;;;13.10;99.90;;;;;;5054919;28;20033;-71
2023/03/03 15:21:04;;;;;;;3.15;1.20;;;12.90;99.90;;;;;;5054549;28;20029;-69
2023/03/03 15:24:07;;;;;;;1.38;0.70;;;13.00;99.90;;;;;;5054700;28;20197;-69
2023/03/03 15:26:56;;;;;;;2.17;0.80;;;13.00;99.90;;;;;;5054073;28;20040;-70
2023/03/03 15:29:34;;;;;;;3.40;0.63;;;12.90;99.90;;;;;;5054600;28;20124;-71
2023/03/03 15:32:26;;;;;;;3.80;1.38;;;12.70;99.90;;;;;;5054495;28;20551;-68
2023/03/03 15:34:58;;;;;;;1.80;0.80;;;12.60;99.90;;;;;;5054788;28;20029;-71
2023/03/03 15:37:40;;;;;;;2.58;1.00;;;12.60;99.90;;;;;;5053114;28;20558;-70
2023/03/03 15:40:19;;;;;;;7.13;0.80;;;12.70;99.90;;;;;;5060833;28;20040;-71
2023/03/03 15:42:52;;;;;;;4.75;0.70;;;12.60;99.90;;;;;;5074396;28;20049;-71
2023/03/03 15:45:47;;;;;;;3.58;0.80;;;12.60;99.90;;;;;;5073697;28;20111;-71
2023/03/03 15:48:39;;;;;;;2.45;0.70;;;12.50;99.90;;;;;;5072042;28;20039;-73
2023/03/03 15:51:21;;;;;;;4.35;2.58;;;12.30;99.90;;;;;;5073840;28;20054;-70
2023/03/03 15:54:18;;;;;;;1.83;1.00;;;12.20;99.90;;;;;;5072973;28;20032;-71
2023/03/03 15:56:51;;;;;;;2.60;0.82;;;12.20;99.90;;;;;;5072767;28;20016;-71
2023/03/03 15:59:20;;;;;;;4.18;2.30;;;12.20;99.90;;;;;;5072883;28;20491;-71
2023/03/03 16:02:05;;;;;;;2.85;0.80;;;12.00;99.90;;;;;;5071651;28;20029;-71
2023/03/03 16:04:37;;;;;;;5.10;0.68;;;12.00;99.90;;;;;;5072288;28;20350;-72
2023/03/03 16:07:28;;;;;;;1.88;0.60;;;11.90;99.90;;;;;;5072259;28;20024;-70
2023/03/03 16:10:12;;;;;;;2.38;0.95;;;11.90;99.90;;;;;;5072078;28;20025;-70
2023/03/03 16:12:53;;;;;;;1.90;0.70;;;11.90;99.90;;;;;;5071872;28;20029;-69
2023/03/03 16:15:35;;;;;;;4.90;1.65;;;11.70;99.90;;;;;;5072013;28;20033;-73
2023/03/03 16:18:17;;;;;;;3.00;1.10;;;11.60;99.90;;;;;;5072622;28;20556;-73
2023/03/03 16:21:02;;;;;;;4.75;0.90;;;11.60;99.90;;;;;;5072913;28;20037;-75
2023/03/03 16:23:46;;;;;;;3.40;0.90;;;11.50;99.90;;;;;;5072822;28;20052;-75
2023/03/03 16:26:15;;;;;;;4.95;0.90;;;11.60;99.90;;;;;;5072439;28;20052;-73
2023/03/03 16:29:23;;;;;;;4.10;1.38;;;11.70;99.90;;;;;;5072460;28;20099;-73
2023/03/03 16:31:56;;;;;;;3.35;0.90;;;11.60;99.90;;;;;;5063555;28;20119;-74
2023/03/03 16:34:36;;;;;;;1.15;0.60;;;11.50;99.90;;;;;;5072366;28;20574;-72
2023/03/03 16:37:48;;;;;;;2.28;0.90;;;11.30;99.90;;;;;;5072691;28;20158;-74
2023/03/03 16:40:30;;;;;;;4.95;0.75;;;11.10;99.90;;;;;;5071677;28;20060;-74
2023/03/03 16:43:22;;;;;;;4.05;0.90;;;10.90;99.90;;;;;;5072519;28;20028;-76
2023/03/03 16:45:49;;;;;;;1.92;0.70;;;11.00;99.90;;;;;;5071883;28;20028;-75
2023/03/03 16:48:48;;;;;;;2.38;0.90;;;10.90;99.90;;;;;;5071721;28;20031;-78
2023/03/03 16:51:41;;;;;;;5.00;0.80;;;10.80;99.90;;;;;;5071311;28;20063;-76
2023/03/03 16:54:14;;;;;;;2.55;0.82;;;10.70;99.90;;;;;;5068856;28;20113;-77
2023/03/03 16:57:18;;;;;;;2.55;0.70;;;10.60;99.90;;;;;;5069975;28;20047;-74
2023/03/03 17:00:18;;;;;;;2.78;0.80;;;10.50;99.90;;;;;;5071537;28;20127;-74
2023/03/03 17:03:12;;;;;;;2.22;0.90;;;10.50;99.90;;;;;;5071656;28;20021;-76
2023/03/03 17:05:59;;;;;;;2.30;1.00;;;10.40;99.90;;;;;;5071689;28;20040;-76
2023/03/03 17:08:55;;;;;;;4.00;1.03;;;10.30;99.90;;;;;;5070182;28;20113;-74
2023/03/03 17:11:48;;;;;;;2.10;0.88;;;10.30;99.90;;;;;;5053983;28;20082;-75
2023/03/03 17:14:46;;;;;;;2.83;0.85;;;10.20;99.90;;;;;;5050273;28;20457;-73
2023/03/03 17:17:27;;;;;;;1.67;0.70;;;10.10;99.90;;;;;;5052869;28;20455;-74
2023/03/03 17:20:33;;;;;;;4.05;1.00;;;10.10;99.90;;;;;;5052759;28;20074;-74
2023/03/03 17:22:59;;;;;;;;;;;10.00;99.90;;;;;;5011525;28;20061;-72
2023/03/03 17:25:52;;;;;;;4.17;1.00;;;10.00;99.90;;;;;;5010551;28;19981;-73
2023/03/03 17:28:40;;;;;;;3.85;0.95;;;10.00;99.90;;;;;;5010861;28;20261;-72
2023/03/03 17:31:38;;;;;;;7.75;1.10;;;9.90;99.90;;;;;;5010858;28;20030;-73
2023/03/03 17:34:33;;;;;;;7.25;2.20;;;9.80;99.90;;;;;;5010500;28;20038;-73
2023/03/03 17:37:20;;;;;;;4.18;1.60;;;9.80;99.90;;;;;;4993855;28;20470;-75
2023/03/03 17:39:53;;;;;;;3.05;1.08;;;9.90;99.90;;;;;;5023012;28;20064;-73
2023/03/03 17:42:48;;;;;;;3.40;1.00;;;9.80;99.90;;;;;;5024520;28;20120;-72
2023/03/03 17:45:16;;;;;;;8.60;5.40;;;9.80;99.90;;;;;;5042961;28;20041;-75
2023/03/03 17:47:51;;;;;;;4.47;1.40;;;9.80;99.90;;;;;;5049948;28;20055;-74
2023/03/03 17:50:23;;;;;;;3.20;1.20;;;9.80;99.90;;;;;;5050149;28;20401;-77
2023/03/03 17:53:30;;;;;;;2.42;1.10;;;9.80;99.90;;;;;;5049533;28;20068;-75
2023/03/03 17:56:04;;;;;;;5.93;1.42;;;9.80;99.90;;;;;;5049675;28;20024;-75
2023/03/03 17:58:49;;;;;;;4.53;1.33;;;9.70;99.90;;;;;;5050063;28;20109;-75